createdAt,value
2023-05-25T00:01:04.768Z,100.00
2023-05-25T00:03:32.625Z,100.00
2023-05-25T00:06:03.910Z,100.00
2023-05-25T00:08:31.131Z,100.00
2023-05-25T00:10:58.662Z,100.00
2023-05-25T00:13:25.864Z,100.00
2023-05-25T00:15:52.969Z,100.00
2023-05-25T00:18:20.040Z,100.00
2023-05-25T00:20:47.673Z,100.00
2023-05-25T00:23:15.002Z,100.00
2023-05-25T00:25:42.588Z,100.00
2023-05-25T00:28:11.496Z,100.00
2023-05-25T00:30:39.055Z,100.00
2023-05-25T00:33:07.108Z,100.00
2023-05-25T00:35:34.192Z,100.00
2023-05-25T00:38:01.257Z,100.00
2023-05-25T00:40:28.353Z,100.00
2023-05-25T00:42:56.204Z,100.00
2023-05-25T00:45:23.626Z,100.00
2023-05-25T00:47:52.308Z,100.00
2023-05-25T00:50:33.503Z,100.00
2023-05-25T00:53:01.168Z,100.00
2023-05-25T00:55:31.539Z,100.00
2023-05-25T00:58:01.049Z,100.00
2023-05-25T01:00:30.583Z,100.00
2023-05-25T01:02:59.736Z,100.00
2023-05-25T01:05:30.808Z,100.00
2023-05-25T01:08:01.876Z,100.00
2023-05-25T01:10:32.736Z,100.00
2023-05-25T01:13:02.088Z,100.00
2023-05-25T01:15:30.977Z,100.00
2023-05-25T01:17:59.233Z,100.00
2023-05-25T01:20:35.679Z,100.00
2023-05-25T01:23:17.506Z,100.00
2023-05-25T01:25:51.456Z,100.00
2023-05-25T01:28:25.342Z,100.00
2023-05-25T01:30:53.706Z,100.00
2023-05-25T01:33:21.563Z,100.00
2023-05-25T01:35:49.072Z,100.00
2023-05-25T01:38:17.709Z,100.00
2023-05-25T01:40:44.794Z,100.00
2023-05-25T01:43:12.263Z,100.00
2023-05-25T01:45:39.324Z,100.00
2023-05-25T01:48:17.557Z,100.00
2023-05-25T01:50:57.994Z,100.00
2023-05-25T01:53:36.105Z,100.00
2023-05-25T01:56:11.442Z,100.00
2023-05-25T01:58:47.174Z,100.00
2023-05-25T02:01:17.006Z,100.00
2023-05-25T02:03:49.066Z,100.00
2023-05-25T02:06:16.742Z,100.00
2023-05-25T02:08:46.716Z,100.00
2023-05-25T02:11:17.217Z,100.00
2023-05-25T02:13:46.191Z,100.00
2023-05-25T02:16:13.361Z,100.00
2023-05-25T02:18:45.835Z,100.00
2023-05-25T02:21:13.068Z,100.00
2023-05-25T02:23:40.377Z,100.00
2023-05-25T02:26:07.565Z,100.00
2023-05-25T02:28:34.725Z,100.00
2023-05-25T02:31:01.974Z,100.00
2023-05-25T02:33:29.108Z,100.00
2023-05-25T02:35:57.754Z,100.00
2023-05-25T02:38:24.838Z,100.00
2023-05-25T02:40:51.921Z,100.00
2023-05-25T02:43:20.940Z,100.00
2023-05-25T02:45:48.016Z,100.00
2023-05-25T02:48:15.292Z,100.00
2023-05-25T02:50:42.454Z,100.00
2023-05-25T02:53:13.374Z,100.00
2023-05-25T02:55:40.528Z,100.00
2023-05-25T02:58:11.193Z,100.00
2023-05-25T03:00:56.781Z,100.00
2023-05-25T03:03:23.881Z,100.00
2023-05-25T03:05:51.568Z,100.00
2023-05-25T03:08:18.870Z,100.00
2023-05-25T03:10:46.030Z,100.00
2023-05-25T03:13:13.100Z,100.00
2023-05-25T03:15:40.360Z,100.00
2023-05-25T03:18:07.844Z,100.00
2023-05-25T03:20:38.198Z,100.00
2023-05-25T03:23:05.544Z,100.00
2023-05-25T03:25:34.121Z,100.00
2023-05-25T03:28:01.599Z,100.00
2023-05-25T03:30:29.659Z,100.00
2023-05-25T03:32:57.267Z,100.00
2023-05-25T03:35:28.472Z,100.00
2023-05-25T03:37:55.550Z,100.00
2023-05-25T03:40:22.795Z,100.00
2023-05-25T03:42:49.934Z,100.00
2023-05-25T03:45:17.124Z,100.00
2023-05-25T03:47:45.530Z,100.00
2023-05-25T03:50:13.025Z,100.00
2023-05-25T03:52:40.117Z,100.00
2023-05-25T03:55:07.424Z,100.00
2023-05-25T03:57:34.493Z,100.00
2023-05-25T04:00:01.906Z,100.00
2023-05-25T04:02:29.056Z,100.00
2023-05-25T04:04:57.117Z,100.00
2023-05-25T04:07:27.390Z,100.00
2023-05-25T04:09:54.470Z,100.00
2023-05-25T04:12:22.074Z,100.00
2023-05-25T04:14:49.157Z,100.00
2023-05-25T04:17:18.945Z,100.00
2023-05-25T04:19:46.406Z,100.00
2023-05-25T04:22:13.477Z,100.00
2023-05-25T04:24:41.338Z,100.00
2023-05-25T04:27:08.534Z,100.00
2023-05-25T04:29:37.127Z,100.00
2023-05-25T04:32:30.145Z,100.00
2023-05-25T04:35:15.843Z,100.00
2023-05-25T04:37:47.070Z,100.00
2023-05-25T04:40:14.640Z,100.00
2023-05-25T04:42:42.725Z,100.00
2023-05-25T04:45:10.507Z,100.00
2023-05-25T04:47:41.138Z,100.00
2023-05-25T04:50:10.934Z,100.00
2023-05-25T04:52:39.012Z,100.00
2023-05-25T04:55:06.607Z,100.00
2023-05-25T04:57:36.962Z,100.00
2023-05-25T05:00:05.944Z,100.00
2023-05-25T05:02:33.337Z,100.00
2023-05-25T05:05:00.470Z,100.00
2023-05-25T05:07:28.981Z,100.00
2023-05-25T05:09:56.302Z,100.00
2023-05-25T05:12:23.619Z,100.00
2023-05-25T05:14:53.073Z,100.00
2023-05-25T05:17:20.542Z,100.00
2023-05-25T05:19:47.894Z,100.00
2023-05-25T05:22:16.128Z,100.00
2023-05-25T05:24:45.511Z,100.00
2023-05-25T05:27:17.163Z,100.00
2023-05-25T05:29:47.930Z,100.00
2023-05-25T05:32:15.704Z,100.00
2023-05-25T05:34:42.860Z,100.00
2023-05-25T05:37:21.099Z,100.00
2023-05-25T05:39:48.188Z,100.00
2023-05-25T05:42:15.562Z,100.00
2023-05-25T05:44:42.690Z,100.00
2023-05-25T05:47:09.945Z,100.00
2023-05-25T05:49:39.238Z,100.00
2023-05-25T05:52:09.022Z,100.00
2023-05-25T05:54:36.606Z,100.00
2023-05-25T05:57:09.412Z,100.00
2023-05-25T05:59:36.594Z,100.00
2023-05-25T06:02:04.313Z,100.00
2023-05-25T06:04:31.567Z,100.00
2023-05-25T06:06:59.191Z,100.00
2023-05-25T06:09:26.574Z,100.00
2023-05-25T06:11:56.017Z,100.00
2023-05-25T06:14:23.153Z,100.00
2023-05-25T06:16:51.153Z,100.00
2023-05-25T06:19:18.575Z,100.00
2023-05-25T06:21:46.088Z,100.00
2023-05-25T06:24:15.211Z,100.00
2023-05-25T06:26:42.261Z,100.00
2023-05-25T06:29:09.325Z,100.00
2023-05-25T06:31:36.474Z,100.00
2023-05-25T06:34:03.662Z,100.00
2023-05-25T06:36:32.131Z,100.00
2023-05-25T06:38:59.857Z,100.00
2023-05-25T06:41:27.770Z,99.29
2023-05-25T06:43:56.458Z,98.97
2023-05-25T06:46:30.394Z,97.86
2023-05-25T06:49:00.530Z,97.96
2023-05-25T06:51:27.986Z,97.07
2023-05-25T06:53:55.710Z,98.24
2023-05-25T06:56:23.484Z,97.42
2023-05-25T06:58:51.025Z,96.68
2023-05-25T07:01:18.086Z,95.85
2023-05-25T07:03:45.503Z,95.33
2023-05-25T07:06:12.932Z,95.13
2023-05-25T07:08:39.989Z,94.40
2023-05-25T07:11:10.482Z,93.88
2023-05-25T07:13:37.557Z,94.20
2023-05-25T07:16:04.692Z,92.59
2023-05-25T07:18:31.750Z,93.85
2023-05-25T07:20:59.318Z,93.08
2023-05-25T07:23:26.379Z,92.65
2023-05-25T07:25:53.439Z,91.92
2023-05-25T07:28:20.461Z,92.30
2023-05-25T07:30:47.520Z,92.17
2023-05-25T07:33:14.602Z,90.77
2023-05-25T07:35:41.822Z,91.70
2023-05-25T07:38:09.157Z,89.95
2023-05-25T07:40:36.579Z,90.25
2023-05-25T07:43:04.479Z,90.44
2023-05-25T07:45:32.750Z,89.48
2023-05-25T07:47:59.805Z,87.81
2023-05-25T07:50:26.987Z,87.87
2023-05-25T07:52:54.018Z,87.34
2023-05-25T07:55:21.249Z,86.32
2023-05-25T07:57:48.381Z,86.57
2023-05-25T08:00:15.845Z,86.69
2023-05-25T08:02:44.127Z,83.18
2023-05-25T08:05:11.431Z,82.15
2023-05-25T08:07:40.053Z,85.86
2023-05-25T08:10:09.284Z,82.76
2023-05-25T08:12:47.865Z,82.04
2023-05-25T08:15:16.805Z,83.90
2023-05-25T08:17:44.514Z,83.55
2023-05-25T08:20:12.379Z,81.54
2023-05-25T08:22:39.700Z,80.22
2023-05-25T08:25:07.968Z,80.17
2023-05-25T08:27:39.188Z,80.23
2023-05-25T08:30:06.921Z,82.02
2023-05-25T08:32:34.261Z,77.06
2023-05-25T08:35:03.569Z,78.27
2023-05-25T08:37:32.288Z,77.93
2023-05-25T08:40:02.107Z,78.31
2023-05-25T08:42:29.632Z,79.53
2023-05-25T08:44:56.877Z,77.72
2023-05-25T08:47:24.257Z,76.11
2023-05-25T08:49:52.830Z,75.03
2023-05-25T08:52:22.937Z,73.46
2023-05-25T08:54:53.641Z,74.36
2023-05-25T08:57:27.403Z,72.71
2023-05-25T09:00:02.831Z,71.62
2023-05-25T09:02:45.103Z,68.76
2023-05-25T09:05:13.735Z,73.42
2023-05-25T09:07:43.020Z,67.58
2023-05-25T09:10:14.995Z,69.29
2023-05-25T09:12:42.843Z,72.92
2023-05-25T09:15:13.306Z,67.67
2023-05-25T09:17:41.317Z,64.85
2023-05-25T09:20:10.762Z,66.43
2023-05-25T09:22:38.362Z,62.45
2023-05-25T09:25:07.948Z,63.00
2023-05-25T09:27:37.319Z,65.23
2023-05-25T09:30:05.802Z,66.79
2023-05-25T09:32:33.075Z,67.78
2023-05-25T09:35:11.715Z,68.26
2023-05-25T09:37:40.765Z,67.22
2023-05-25T09:40:10.702Z,66.67
2023-05-25T09:42:38.549Z,66.29
2023-05-25T09:45:06.808Z,64.41
2023-05-25T09:47:36.628Z,64.63
2023-05-25T09:50:04.095Z,63.21
2023-05-25T09:52:31.419Z,64.07
2023-05-25T09:54:59.238Z,62.65
2023-05-25T09:57:27.177Z,61.44
2023-05-25T09:59:54.234Z,62.59
2023-05-25T10:02:21.696Z,62.85
2023-05-25T10:04:48.835Z,63.73
2023-05-25T10:07:17.254Z,62.51
2023-05-25T10:09:46.382Z,62.55
2023-05-25T10:12:19.295Z,61.45
2023-05-25T10:14:48.573Z,62.67
2023-05-25T10:17:22.827Z,62.91
2023-05-25T10:20:05.295Z,61.95
2023-05-25T10:22:36.756Z,62.52
2023-05-25T10:25:42.623Z,61.04
2023-05-25T10:28:12.604Z,62.56
2023-05-25T10:30:41.314Z,63.51
2023-05-25T10:33:08.753Z,63.52
2023-05-25T10:35:56.248Z,63.17
2023-05-25T10:38:26.805Z,62.92
2023-05-25T10:40:55.069Z,62.43
2023-05-25T10:43:23.503Z,64.43
2023-05-25T10:45:50.623Z,62.23
2023-05-25T10:48:17.807Z,61.22
2023-05-25T10:50:50.678Z,63.16
2023-05-25T10:53:24.020Z,64.64
2023-05-25T10:55:53.756Z,64.10
2023-05-25T10:58:22.884Z,60.74
2023-05-25T11:01:02.261Z,59.75
2023-05-25T11:03:44.888Z,59.90
2023-05-25T11:06:12.278Z,57.85
2023-05-25T11:08:54.928Z,58.50
2023-05-25T11:11:42.776Z,59.33
2023-05-25T11:14:29.654Z,60.25
2023-05-25T11:17:16.420Z,58.20
2023-05-25T11:19:50.996Z,59.61
2023-05-25T11:22:21.155Z,59.56
2023-05-25T11:24:50.054Z,59.65
2023-05-25T11:27:24.830Z,59.53
2023-05-25T11:29:52.802Z,58.07
2023-05-25T11:32:21.290Z,58.24
2023-05-25T11:34:48.800Z,58.74
2023-05-25T11:37:17.253Z,57.68
2023-05-25T11:39:47.687Z,57.30
2023-05-25T11:42:15.188Z,57.45
2023-05-25T11:44:43.404Z,57.06
2023-05-25T11:47:14.331Z,58.07
2023-05-25T11:49:44.142Z,57.84
2023-05-25T11:52:13.002Z,58.23
2023-05-25T11:54:43.391Z,59.10
2023-05-25T11:57:27.341Z,58.49
2023-05-25T11:59:56.186Z,59.44
2023-05-25T12:02:24.258Z,59.76
2023-05-25T12:04:56.956Z,59.50
2023-05-25T12:07:26.083Z,60.21
2023-05-25T12:10:15.049Z,59.78
2023-05-25T12:12:42.980Z,60.21
2023-05-25T12:15:12.128Z,57.52
2023-05-25T12:17:44.082Z,59.60
2023-05-25T12:20:12.884Z,59.52
2023-05-25T12:22:40.709Z,59.45
2023-05-25T12:25:10.273Z,59.47
2023-05-25T12:27:38.120Z,60.45
2023-05-25T12:30:06.200Z,60.92
2023-05-25T12:32:33.421Z,61.79
2023-05-25T12:35:05.281Z,61.48
2023-05-25T12:37:33.290Z,61.53
2023-05-25T12:40:00.628Z,62.41
2023-05-25T12:42:27.839Z,61.59
2023-05-25T12:45:01.633Z,61.91
2023-05-25T12:47:30.241Z,61.26
2023-05-25T12:50:14.747Z,61.94
2023-05-25T12:52:44.191Z,61.86
2023-05-25T12:55:25.990Z,61.83
2023-05-25T12:57:54.711Z,61.05
2023-05-25T13:00:27.503Z,62.10
2023-05-25T13:02:54.888Z,62.11
2023-05-25T13:05:26.397Z,62.19
2023-05-25T13:07:56.386Z,60.74
2023-05-25T13:10:24.463Z,60.02
2023-05-25T13:12:53.491Z,60.45
2023-05-25T13:15:21.893Z,61.39
2023-05-25T13:17:50.746Z,61.44
2023-05-25T13:20:23.488Z,61.50
2023-05-25T13:22:52.378Z,60.27
2023-05-25T13:25:19.735Z,61.65
2023-05-25T13:27:49.474Z,60.68
2023-05-25T13:30:17.130Z,61.19
2023-05-25T13:32:44.550Z,60.37
2023-05-25T13:35:18.353Z,61.43
2023-05-25T13:37:46.263Z,61.30
2023-05-25T13:40:14.710Z,61.05
2023-05-25T13:42:41.823Z,60.64
2023-05-25T13:45:09.518Z,60.00
2023-05-25T13:47:36.895Z,61.24
2023-05-25T13:50:04.602Z,61.69
2023-05-25T13:52:31.690Z,61.66
2023-05-25T13:54:58.716Z,61.39
2023-05-25T13:57:25.930Z,60.55
2023-05-25T13:59:52.986Z,59.55
2023-05-25T14:02:20.127Z,59.97
2023-05-25T14:04:47.277Z,61.31
2023-05-25T14:07:14.319Z,61.87
2023-05-25T14:09:41.535Z,61.80
2023-05-25T14:12:08.681Z,62.16
2023-05-25T14:14:36.780Z,62.65
2023-05-25T14:17:03.994Z,62.34
2023-05-25T14:19:31.292Z,62.01
2023-05-25T14:24:28.415Z,62.54
2023-05-25T14:26:58.257Z,61.48
2023-05-25T14:29:25.438Z,61.34
2023-05-25T14:31:52.820Z,61.38
2023-05-25T14:34:20.058Z,62.25
2023-05-25T14:36:47.085Z,62.88
2023-05-25T14:39:16.464Z,61.44
2023-05-25T14:41:44.448Z,60.06
2023-05-25T14:44:11.565Z,61.84
2023-05-25T14:46:38.746Z,60.38
2023-05-25T14:49:05.809Z,60.50
2023-05-25T14:51:32.883Z,58.76
2023-05-25T14:54:03.354Z,59.85
2023-05-25T14:56:30.600Z,60.17
2023-05-25T14:58:57.643Z,59.98
2023-05-25T15:01:25.579Z,59.21
2023-05-25T15:03:53.028Z,59.95
2023-05-25T15:06:20.395Z,57.01
2023-05-25T15:08:47.443Z,56.67
2023-05-25T15:11:14.493Z,53.79
2023-05-25T15:13:41.599Z,52.16
2023-05-25T15:16:12.472Z,51.56
2023-05-25T15:18:39.642Z,48.93
2023-05-25T15:21:06.740Z,47.54
2023-05-25T15:23:33.851Z,46.20
2023-05-25T15:26:04.750Z,45.95
2023-05-25T15:28:31.918Z,45.70
2023-05-25T15:31:01.720Z,44.06
2023-05-25T15:33:49.539Z,44.54
2023-05-25T15:36:19.034Z,43.58
2023-05-25T15:38:49.076Z,45.63
2023-05-25T15:41:17.399Z,44.66
2023-05-25T15:43:54.240Z,43.45
2023-05-25T15:46:21.354Z,42.67
2023-05-25T15:48:48.414Z,42.23
2023-05-25T15:51:15.718Z,40.62
2023-05-25T15:53:42.822Z,39.67
2023-05-25T15:56:10.012Z,39.84
2023-05-25T15:58:37.036Z,38.25
2023-05-25T16:01:04.355Z,38.50
2023-05-25T16:03:31.721Z,37.66
2023-05-25T16:05:58.839Z,39.43
2023-05-25T16:08:25.865Z,39.65
2023-05-25T16:10:52.903Z,41.00
2023-05-25T16:13:19.971Z,40.85
2023-05-25T16:15:47.232Z,38.23
2023-05-25T16:18:14.613Z,37.64
2023-05-25T16:20:41.711Z,40.83
2023-05-25T16:23:08.785Z,42.97
2023-05-25T16:25:35.903Z,39.92
2023-05-25T16:28:03.068Z,37.33
2023-05-25T16:30:30.355Z,37.36
2023-05-25T16:32:57.439Z,38.08
2023-05-25T16:35:24.494Z,40.13
2023-05-25T16:37:51.533Z,38.33
2023-05-25T16:40:18.562Z,38.66
2023-05-25T16:42:45.748Z,39.35
2023-05-25T16:45:12.932Z,37.33
2023-05-25T16:47:40.002Z,38.03
2023-05-25T16:50:07.983Z,38.68
2023-05-25T16:52:35.640Z,38.11
2023-05-25T16:55:03.264Z,36.82
2023-05-25T16:57:30.530Z,38.44
2023-05-25T16:59:57.601Z,40.27
2023-05-25T17:02:24.997Z,38.90
2023-05-25T17:04:52.105Z,37.38
2023-05-25T17:07:19.177Z,38.09
2023-05-25T17:09:46.233Z,36.66
2023-05-25T17:12:13.296Z,36.48
2023-05-25T17:14:40.430Z,37.79
2023-05-25T17:17:07.528Z,38.11
2023-05-25T17:19:34.751Z,37.52
2023-05-25T17:22:01.786Z,36.47
2023-05-25T17:24:28.863Z,36.43
2023-05-25T17:26:56.039Z,36.40
2023-05-25T17:29:23.126Z,36.51
2023-05-25T17:31:50.388Z,37.08
2023-05-25T17:34:17.618Z,37.51
2023-05-25T17:36:44.809Z,36.25
2023-05-25T17:39:11.871Z,36.69
2023-05-25T17:41:38.968Z,36.83
2023-05-25T17:44:06.132Z,37.34
2023-05-25T17:46:33.185Z,37.82
2023-05-25T17:49:00.510Z,37.68
2023-05-25T17:51:27.577Z,39.72
2023-05-25T17:53:54.628Z,38.83
2023-05-25T17:56:22.190Z,37.99
2023-05-25T17:58:49.350Z,41.19
2023-05-25T18:01:16.827Z,46.95
2023-05-25T18:03:44.121Z,49.82
2023-05-25T18:06:11.259Z,53.44
2023-05-25T18:08:38.271Z,52.26
2023-05-25T18:11:05.641Z,54.56
2023-05-25T18:13:32.820Z,57.29
2023-05-25T18:15:59.929Z,59.03
2023-05-25T18:18:27.182Z,58.46
2023-05-25T18:20:54.255Z,59.28
2023-05-25T18:23:22.374Z,61.85
2023-05-25T18:25:49.547Z,62.40
2023-05-25T18:28:16.747Z,63.52
2023-05-25T18:30:43.910Z,64.49
2023-05-25T18:33:11.111Z,64.76
2023-05-25T18:35:38.680Z,64.23
2023-05-25T18:38:06.586Z,64.69
2023-05-25T18:40:33.698Z,66.47
2023-05-25T18:43:00.849Z,66.65
2023-05-25T18:45:27.910Z,68.29
2023-05-25T18:47:55.059Z,69.37
2023-05-25T18:50:22.137Z,70.52
2023-05-25T18:52:51.273Z,70.08
2023-05-25T18:55:18.999Z,69.69
2023-05-25T18:57:46.687Z,69.98
2023-05-25T19:00:14.412Z,70.67
2023-05-25T19:02:41.785Z,71.67
2023-05-25T19:05:11.466Z,72.94
2023-05-25T19:07:54.675Z,73.71
2023-05-25T19:10:25.350Z,72.17
2023-05-25T19:12:52.476Z,75.03
2023-05-25T19:15:19.601Z,73.46
2023-05-25T19:17:47.043Z,73.28
2023-05-25T19:20:14.505Z,74.20
2023-05-25T19:22:42.516Z,74.57
2023-05-25T19:25:09.745Z,74.51
2023-05-25T19:27:36.844Z,75.65
2023-05-25T19:30:04.613Z,77.88
2023-05-25T19:32:31.689Z,79.07
2023-05-25T19:34:58.798Z,80.01
2023-05-25T19:37:26.477Z,80.08
2023-05-25T19:39:53.533Z,81.75
2023-05-25T19:42:20.770Z,82.75
2023-05-25T19:44:47.803Z,81.61
2023-05-25T19:47:14.926Z,83.62
2023-05-25T19:49:42.745Z,84.32
2023-05-25T19:52:09.815Z,83.47
2023-05-25T19:54:38.583Z,84.23
2023-05-25T19:57:06.636Z,86.07
2023-05-25T19:59:33.816Z,87.51
2023-05-25T20:02:00.921Z,85.25
2023-05-25T20:04:28.005Z,83.46
2023-05-25T20:06:55.102Z,85.05
2023-05-25T20:09:30.465Z,83.77
2023-05-25T20:11:58.516Z,85.28
2023-05-25T20:14:26.276Z,85.18
2023-05-25T20:16:55.682Z,85.41
2023-05-25T20:19:25.534Z,87.28
2023-05-25T20:21:53.318Z,87.45
2023-05-25T20:24:21.879Z,87.37
2023-05-25T20:26:49.084Z,87.52
2023-05-25T20:29:16.120Z,86.21
2023-05-25T20:31:43.175Z,86.70
2023-05-25T20:34:10.235Z,87.14
2023-05-25T20:36:38.061Z,89.63
2023-05-25T20:39:05.504Z,91.01
2023-05-25T20:41:32.582Z,91.06
2023-05-25T20:43:59.677Z,90.86
2023-05-25T20:46:26.734Z,89.55
2023-05-25T20:48:54.112Z,89.44
2023-05-25T20:51:21.775Z,89.22
2023-05-25T20:53:48.905Z,90.03
2023-05-25T20:56:16.055Z,90.19
2023-05-25T20:58:43.365Z,90.86
2023-05-25T21:01:10.521Z,90.50
2023-05-25T21:03:37.833Z,91.88
2023-05-25T21:06:04.995Z,91.84
2023-05-25T21:08:33.235Z,91.51
2023-05-25T21:11:00.273Z,90.77
2023-05-25T21:13:27.457Z,92.14
2023-05-25T21:15:54.529Z,90.59
2023-05-25T21:18:21.618Z,91.72
2023-05-25T21:20:49.059Z,95.08
2023-05-25T21:23:16.230Z,95.24
2023-05-25T21:25:43.507Z,96.49
2023-05-25T21:28:10.963Z,99.20
2023-05-25T21:30:38.004Z,97.98
2023-05-25T21:33:13.447Z,98.62
2023-05-25T21:35:40.648Z,98.44
2023-05-25T21:38:08.694Z,97.12
2023-05-25T21:40:38.622Z,99.04
2023-05-25T21:43:06.483Z,100.00
2023-05-25T21:45:33.557Z,100.00
2023-05-25T21:48:00.673Z,100.00
2023-05-25T21:50:28.472Z,100.00
2023-05-25T21:52:55.534Z,100.00
2023-05-25T21:55:22.759Z,100.00
2023-05-25T21:57:49.770Z,100.00
2023-05-25T22:00:17.184Z,100.00
2023-05-25T22:02:44.383Z,100.00
2023-05-25T22:05:11.509Z,100.00
2023-05-25T22:07:38.615Z,100.00
2023-05-25T22:10:06.717Z,100.00
2023-05-25T22:12:33.751Z,100.00
2023-05-25T22:15:00.871Z,100.00
2023-05-25T22:17:28.001Z,100.00
2023-05-25T22:20:06.463Z,100.00
2023-05-25T22:22:34.977Z,100.00
2023-05-25T22:25:02.005Z,100.00
2023-05-25T22:27:29.082Z,100.00
2023-05-25T22:29:56.105Z,100.00
2023-05-25T22:32:23.411Z,100.00
2023-05-25T22:34:50.554Z,100.00
2023-05-25T22:37:17.746Z,100.00
2023-05-25T22:39:44.795Z,100.00
2023-05-25T22:42:11.978Z,100.00
2023-05-25T22:44:39.064Z,100.00
2023-05-25T22:47:06.522Z,100.00
2023-05-25T22:49:41.184Z,100.00
2023-05-25T22:52:11.322Z,100.00
2023-05-25T22:54:38.526Z,100.00
2023-05-25T22:57:06.328Z,100.00
2023-05-25T22:59:33.434Z,100.00
2023-05-25T23:02:00.688Z,100.00
2023-05-25T23:04:27.847Z,100.00
2023-05-25T23:06:54.909Z,100.00
2023-05-25T23:09:21.947Z,100.00
2023-05-25T23:11:49.073Z,100.00
2023-05-25T23:14:16.104Z,100.00
2023-05-25T23:16:44.305Z,100.00
2023-05-25T23:19:11.475Z,100.00
2023-05-25T23:21:38.548Z,100.00
2023-05-25T23:24:06.059Z,100.00
2023-05-25T23:26:33.117Z,100.00
2023-05-25T23:29:00.200Z,100.00
2023-05-25T23:31:27.412Z,100.00
2023-05-25T23:33:54.521Z,100.00
2023-05-25T23:36:21.608Z,100.00
2023-05-25T23:38:48.632Z,100.00
2023-05-25T23:41:16.483Z,100.00
2023-05-25T23:43:43.585Z,100.00
2023-05-25T23:46:10.719Z,100.00
2023-05-25T23:48:37.808Z,100.00
2023-05-25T23:51:07.381Z,100.00
2023-05-25T23:53:34.393Z,100.00
2023-05-25T23:56:01.458Z,100.00
2023-05-25T23:58:28.586Z,100.00
